KCQT

Los Angeles / USC Campus Downtown Airport

Los Angeles, California, USA
METAR KCQT 160947Z AUTO 00000KT 8SM CLR 12/05 A2988 RMK AO2 SLP116 T01220050
Observed Flight Rules
Dec-16 @ 09:47 UTC (an hour ago) Visual Flight Rules
Wind Visibility Clouds
Calm 8 miles
  • Clear skies
Temperatures Readings
Current 12°C / 54°F
Dewpoint 5°C / 41°F
Humidity 63%
Altimeter 29.88" Hg
Pressure 1011.6 hPa
Elevation 56
METAR KCQT 160947Z AUTO 00000KT 8SM CLR 12/05 A2988 RMK AO2 SLP116 T01220050
Observed Flight Rules
Dec-16 @ 09:47 UTC
(an hour ago)
VFR
Wind Visibility
Calm 8 miles
Clouds
  • Clear skies
Temperature Dewpoint
12°C / 54°F 5°C / 41°F
Humidity Altimeter Pressure
63% 29.88" Hg 1011.6 hPa